createdAt,value
2022-12-31T00:04:10.265Z,100143.00
2022-12-31T00:09:11.779Z,100149.88
2022-12-31T00:14:13.104Z,100127.16
2022-12-31T00:19:14.584Z,100142.78
2022-12-31T00:24:15.923Z,100132.31
2022-12-31T00:29:17.398Z,100149.41
2022-12-31T00:34:18.756Z,100151.09
2022-12-31T00:39:20.297Z,100132.66
2022-12-31T00:44:21.635Z,100149.78
2022-12-31T00:49:23.136Z,100137.81
2022-12-31T00:54:24.470Z,100139.91
2022-12-31T00:59:25.977Z,100135.13
2022-12-31T01:04:27.299Z,100140.97
2022-12-31T01:09:28.791Z,100147.75
2022-12-31T01:14:32.604Z,100144.28
2022-12-31T01:19:34.009Z,100155.81
2022-12-31T01:24:35.368Z,100165.28
2022-12-31T01:29:36.699Z,100163.69
2022-12-31T01:34:38.004Z,100155.75
2022-12-31T01:39:39.324Z,100161.25
2022-12-31T01:44:40.711Z,100169.47
2022-12-31T01:49:48.320Z,100169.38
2022-12-31T01:54:52.136Z,100162.53
2022-12-31T01:59:54.959Z,100179.88
2022-12-31T02:04:58.277Z,100171.91
2022-12-31T02:10:00.008Z,100189.03
2022-12-31T02:15:02.149Z,100192.34
2022-12-31T02:20:21.996Z,100201.81
2022-12-31T02:25:41.701Z,100183.47
2022-12-31T02:30:45.527Z,100180.75
2022-12-31T02:35:58.413Z,100190.06
2022-12-31T02:41:00.443Z,100193.22
2022-12-31T02:46:04.967Z,100183.75
2022-12-31T02:51:09.394Z,100190.03
2022-12-31T02:56:18.632Z,100188.94
2022-12-31T03:01:42.821Z,100197.09
2022-12-31T03:06:44.443Z,100188.78
2022-12-31T03:12:04.765Z,100216.22
2022-12-31T03:17:06.247Z,100189.03
2022-12-31T03:22:26.540Z,100189.53
2022-12-31T03:27:27.866Z,100196.50
2022-12-31T03:32:29.417Z,100223.78
2022-12-31T03:37:30.848Z,100219.00
2022-12-31T03:42:32.150Z,100212.63
2022-12-31T03:47:33.487Z,100227.19
2022-12-31T03:52:35.030Z,100221.59
2022-12-31T03:57:36.481Z,100243.91
2022-12-31T04:02:38.176Z,100236.13
2022-12-31T04:07:39.922Z,100225.13
2022-12-31T04:12:41.320Z,100220.31
2022-12-31T04:17:42.657Z,100187.97
2022-12-31T04:22:44.255Z,100181.97
2022-12-31T04:27:45.712Z,100187.28
2022-12-31T04:32:47.113Z,100201.63
2022-12-31T04:37:48.443Z,100219.94
2022-12-31T04:42:49.735Z,100230.81
2022-12-31T04:47:51.295Z,100234.66
2022-12-31T04:52:52.623Z,100251.41
2022-12-31T04:57:54.181Z,100249.34
2022-12-31T05:02:55.606Z,100261.91
2022-12-31T05:07:56.965Z,100265.50
2022-12-31T05:12:58.325Z,100271.31
2022-12-31T05:17:59.767Z,100289.34
2022-12-31T05:23:01.387Z,100294.53
2022-12-31T05:28:02.735Z,100284.25
2022-12-31T05:33:04.570Z,100304.84
2022-12-31T05:38:05.895Z,100308.88
2022-12-31T05:43:07.361Z,100300.28
2022-12-31T05:48:08.674Z,100291.38
2022-12-31T05:53:10.234Z,100283.41
2022-12-31T05:58:11.539Z,100297.81
2022-12-31T06:03:13.043Z,100302.06
2022-12-31T06:08:14.808Z,100319.53
2022-12-31T06:13:16.118Z,100329.84
2022-12-31T06:18:17.639Z,100316.31
2022-12-31T06:23:18.975Z,100350.91
2022-12-31T06:28:20.769Z,100344.13
2022-12-31T06:33:22.166Z,100362.00
2022-12-31T06:38:24.900Z,100376.91
2022-12-31T06:43:26.523Z,100371.53
2022-12-31T06:48:27.862Z,100382.22
2022-12-31T06:53:29.170Z,100380.16
2022-12-31T06:58:30.728Z,100380.56
2022-12-31T07:03:38.181Z,100387.13
2022-12-31T07:08:45.693Z,100402.22
2022-12-31T07:14:06.893Z,100401.69
2022-12-31T07:19:09.464Z,100397.75
2022-12-31T07:24:11.659Z,100406.06
2022-12-31T07:29:16.168Z,100404.22
2022-12-31T07:34:17.507Z,100411.19
2022-12-31T07:39:41.522Z,100412.63
2022-12-31T07:44:42.832Z,100418.78
2022-12-31T07:49:44.651Z,100426.13
2022-12-31T07:54:46.102Z,100439.00
2022-12-31T07:59:47.703Z,100423.91
2022-12-31T08:04:56.463Z,100421.00
2022-12-31T08:10:14.013Z,100423.78
2022-12-31T08:15:20.053Z,100447.72
2022-12-31T08:20:23.374Z,100440.03
2022-12-31T08:25:35.271Z,100463.22
2022-12-31T08:30:55.113Z,100457.47
2022-12-31T08:35:59.618Z,100459.63
2022-12-31T08:41:10.021Z,100464.53
2022-12-31T08:46:17.154Z,100463.69
2022-12-31T08:51:22.770Z,100472.91
2022-12-31T08:56:29.132Z,100486.28
2022-12-31T09:01:34.959Z,100490.50
2022-12-31T09:06:41.496Z,100497.53
2022-12-31T09:11:48.623Z,100508.09
2022-12-31T09:17:09.010Z,100502.16
2022-12-31T09:22:10.505Z,100518.25
2022-12-31T09:27:27.416Z,100513.78
2022-12-31T09:32:29.228Z,100528.72
2022-12-31T09:37:41.515Z,100529.00
2022-12-31T09:42:59.831Z,100527.69
2022-12-31T09:48:28.708Z,100525.72
2022-12-31T09:53:39.193Z,100517.53
2022-12-31T09:59:03.394Z,100527.19
2022-12-31T10:04:23.384Z,100535.19
2022-12-31T10:09:24.765Z,100542.91
2022-12-31T10:14:32.254Z,100547.31
2022-12-31T10:19:36.614Z,100554.25
2022-12-31T10:25:00.624Z,100569.38
2022-12-31T10:30:04.997Z,100562.44
2022-12-31T10:35:12.573Z,100566.53
2022-12-31T10:40:13.939Z,100564.25
2022-12-31T10:45:33.923Z,100581.66
2022-12-31T10:50:41.515Z,100588.78
2022-12-31T10:55:45.818Z,100583.44
2022-12-31T11:00:51.059Z,100597.66
2022-12-31T11:06:11.264Z,100583.72
2022-12-31T11:11:32.677Z,100590.94
2022-12-31T11:16:34.104Z,100590.06
2022-12-31T11:21:41.334Z,100586.00
2022-12-31T11:26:49.385Z,100605.19
2022-12-31T11:32:05.824Z,100607.16
2022-12-31T11:37:25.959Z,100611.41
2022-12-31T11:42:27.280Z,100601.44
2022-12-31T11:48:28.387Z,100597.16
2022-12-31T11:53:30.949Z,100586.28
2022-12-31T11:58:32.359Z,100577.97
2022-12-31T12:03:38.521Z,100575.50
2022-12-31T12:08:40.587Z,100572.47
2022-12-31T12:13:41.946Z,100573.84
2022-12-31T12:18:48.201Z,100589.94
2022-12-31T12:23:58.535Z,100565.91
2022-12-31T12:29:00.459Z,100558.00
2022-12-31T12:34:01.763Z,100544.50
2022-12-31T12:39:06.702Z,100545.88
2022-12-31T12:44:14.135Z,100533.09
2022-12-31T12:49:38.690Z,100514.78
2022-12-31T12:54:55.748Z,100510.75
2022-12-31T13:00:06.342Z,100541.84
2022-12-31T13:05:26.015Z,100540.81
2022-12-31T13:10:47.952Z,100550.19
2022-12-31T13:15:57.005Z,100555.06
2022-12-31T13:21:07.575Z,100540.09
2022-12-31T13:26:24.867Z,100543.94
2022-12-31T13:31:35.335Z,100557.88
2022-12-31T13:36:39.610Z,100563.84
2022-12-31T13:41:48.959Z,100569.53
2022-12-31T13:46:50.246Z,100558.50
2022-12-31T13:51:56.087Z,100556.22
2022-12-31T13:57:01.854Z,100549.38
2022-12-31T14:02:15.287Z,100547.22
2022-12-31T14:07:32.544Z,100555.53
2022-12-31T14:12:53.959Z,100579.28
2022-12-31T14:18:10.476Z,100570.38
2022-12-31T14:23:11.790Z,100550.94
2022-12-31T14:28:33.361Z,100559.09
2022-12-31T14:33:42.987Z,100552.75
2022-12-31T14:38:47.302Z,100554.94
2022-12-31T14:44:01.206Z,100553.78
2022-12-31T14:49:12.767Z,100530.91
2022-12-31T14:54:35.343Z,100524.22
2022-12-31T14:59:40.399Z,100530.44
2022-12-31T15:04:43.695Z,100538.25
2022-12-31T15:09:45.088Z,100547.78
2022-12-31T15:14:56.195Z,100537.22
2022-12-31T15:19:57.485Z,100559.63
2022-12-31T15:25:00.938Z,100557.81
2022-12-31T15:30:02.970Z,100560.94
2022-12-31T15:35:23.983Z,100563.94
2022-12-31T15:40:25.401Z,100576.78
2022-12-31T15:45:36.348Z,100584.94
2022-12-31T15:50:39.222Z,100580.16
2022-12-31T15:55:46.158Z,100603.28
2022-12-31T16:01:06.146Z,100585.97
2022-12-31T16:06:12.278Z,100606.38
2022-12-31T16:11:14.727Z,100599.47
2022-12-31T16:16:27.516Z,100604.97
2022-12-31T16:21:28.841Z,100615.72
2022-12-31T16:26:32.534Z,100630.34
2022-12-31T16:31:33.924Z,100625.63
2022-12-31T16:36:35.496Z,100626.84
2022-12-31T16:41:43.453Z,100624.16
2022-12-31T16:46:45.282Z,100623.16
2022-12-31T16:51:47.186Z,100630.69
2022-12-31T16:56:48.862Z,100635.50
2022-12-31T17:01:50.914Z,100632.88
2022-12-31T17:06:52.426Z,100614.00
2022-12-31T17:11:54.777Z,100616.66
2022-12-31T17:17:03.577Z,100621.53
2022-12-31T17:22:08.239Z,100621.19
2022-12-31T17:27:10.299Z,100627.03
2022-12-31T17:32:17.676Z,100607.59
2022-12-31T17:37:29.785Z,100638.81
2022-12-31T17:42:36.914Z,100631.63
2022-12-31T17:47:40.426Z,100620.44
2022-12-31T17:52:41.735Z,100609.19
2022-12-31T17:57:51.565Z,100603.13
2022-12-31T18:02:52.938Z,100617.97
2022-12-31T18:07:54.403Z,100605.81
2022-12-31T18:12:55.880Z,100606.69
2022-12-31T18:17:57.190Z,100618.28
2022-12-31T18:22:58.752Z,100633.03
2022-12-31T18:28:00.162Z,100618.16
2022-12-31T18:33:01.503Z,100626.47
2022-12-31T18:38:02.959Z,100625.72
2022-12-31T18:43:05.324Z,100620.34
2022-12-31T18:48:06.772Z,100635.53
2022-12-31T18:53:13.572Z,100638.94
2022-12-31T18:58:15.140Z,100636.13
2022-12-31T19:03:19.221Z,100635.47
2022-12-31T19:08:21.322Z,100635.09
2022-12-31T19:13:23.307Z,100633.88
2022-12-31T19:18:24.708Z,100634.50
2022-12-31T19:23:26.027Z,100638.97
2022-12-31T19:28:27.815Z,100629.84
2022-12-31T19:33:29.143Z,100627.13
2022-12-31T19:38:32.106Z,100639.91
2022-12-31T19:43:33.461Z,100634.78
2022-12-31T19:48:34.803Z,100644.59
2022-12-31T19:53:36.162Z,100640.47
2022-12-31T19:58:37.486Z,100648.72
2022-12-31T20:03:38.836Z,100658.28
2022-12-31T20:08:43.285Z,100662.66
2022-12-31T20:13:45.815Z,100675.78
2022-12-31T20:18:47.755Z,100673.59
2022-12-31T20:23:49.975Z,100669.94
2022-12-31T20:28:52.144Z,100688.31
2022-12-31T20:33:56.803Z,100687.88
2022-12-31T20:38:58.583Z,100698.28
2022-12-31T20:44:00.350Z,100685.81
2022-12-31T20:49:02.354Z,100695.47
2022-12-31T20:54:08.893Z,100701.22
2022-12-31T20:59:10.453Z,100692.63
2022-12-31T21:04:11.880Z,100708.38
2022-12-31T21:09:13.956Z,100706.56
2022-12-31T21:14:15.405Z,100713.50
2022-12-31T21:19:16.778Z,100725.06
2022-12-31T21:24:23.584Z,100730.84
2022-12-31T21:29:27.847Z,100743.97
2022-12-31T21:34:32.702Z,100755.97
2022-12-31T21:39:34.028Z,100742.03
2022-12-31T21:44:35.363Z,100764.91
2022-12-31T21:49:36.673Z,100768.94
2022-12-31T21:54:58.292Z,100765.91
2022-12-31T22:00:40.937Z,100769.69
2022-12-31T22:05:44.908Z,100781.28
2022-12-31T22:10:52.084Z,100762.72
2022-12-31T22:16:00.283Z,100784.78
2022-12-31T22:21:10.806Z,100788.41
2022-12-31T22:26:17.793Z,100787.19
2022-12-31T22:31:20.710Z,100774.50
2022-12-31T22:36:22.723Z,100776.81
2022-12-31T22:41:24.816Z,100793.78
2022-12-31T22:46:27.389Z,100797.59
2022-12-31T22:51:57.162Z,100783.84
2022-12-31T22:56:50.977Z,100799.25
2022-12-31T23:01:52.321Z,100792.59
2022-12-31T23:06:53.636Z,100789.13
2022-12-31T23:11:55.045Z,100774.09
2022-12-31T23:17:30.965Z,100789.28
2022-12-31T23:22:51.754Z,100784.50
2022-12-31T23:27:53.080Z,100777.69
2022-12-31T23:32:54.421Z,100763.81
2022-12-31T23:37:55.792Z,100773.28
2022-12-31T23:42:58.193Z,100766.84
2022-12-31T23:47:59.550Z,100767.69
2022-12-31T23:53:00.852Z,100774.59
2022-12-31T23:58:02.190Z,100773.44
